Time;durP1;ratioP1;P1;durP2;ratioP2;P2;SDS_P1;SDS_P2;PMS_P1;PMS_P2;Temp;Humidity;BMP_temperature;BMP_pressure;BME280_temperature;BME280_humidity;BME280_pressure;Samples;Min_cycle;Max_cycle;Signal;HPM_P1;HPM_P2
2022/12/20 00:00:50;;;;;;;;;;;;;;;8.61;66.91;103748.72;5030086;28;19923;-83
2022/12/20 00:03:16;;;;;;;;;;;;;;;8.51;67.22;103744.22;5047161;28;19921;-83
2022/12/20 00:05:41;;;;;;;;;;;;;;;8.58;67.06;103765.72;5051302;28;20584;-83
2022/12/20 00:08:07;;;;;;;;;;;;;;;8.61;66.86;103755.63;5051724;28;19916;-83
2022/12/20 00:10:36;;;;;;;;;;;;;;;8.51;67.22;103759.84;5050329;28;19923;-83
2022/12/20 00:13:02;;;;;;;;;;;;;;;8.47;66.83;103754.13;5051916;28;19917;-83
2022/12/20 00:15:27;;;;;;;;;;;;;;;8.49;66.92;103739.59;5050105;28;20396;-83
2022/12/20 00:17:53;;;;;;;;;;;;;;;8.48;67.23;103749.06;5051337;28;19917;-82
2022/12/20 00:20:18;;;;;;;;;;;;;;;8.53;66.53;103727.06;5050135;28;20444;-83
2022/12/20 00:22:44;;;;;;;;;;;;;;;8.46;67.08;103723.59;5051154;28;20016;-83
2022/12/20 00:25:10;;;;;;;;;;;;;;;8.50;67.09;103724.09;5049916;28;20388;-83
2022/12/20 00:27:43;;;;;;;;;;;;;;;8.50;67.05;103713.69;5033496;28;19924;-83
2022/12/20 00:30:08;;;;;;;;;;;;;;;8.45;67.21;103709.66;5051110;28;19971;-83
2022/12/20 00:32:34;;;;;;;;;;;;;;;8.40;66.89;103699.47;5049714;28;19920;-83
2022/12/20 00:34:59;;;;;;;;;;;;;;;8.38;67.04;103695.75;5050761;28;19966;-83
2022/12/20 00:37:25;;;;;;;;;;;;;;;8.28;67.40;103693.84;5049932;28;20373;-83
2022/12/20 00:39:50;;;;;;;;;;;;;;;8.32;66.72;103707.38;5053057;28;20290;-83
2022/12/20 00:42:15;;;;;;;;;;;;;;;8.30;66.95;103718.38;5071100;28;19917;-82
2022/12/20 00:44:41;;;;;;;;;;;;;;;8.20;67.13;103707.69;5053240;28;20401;-82
2022/12/20 00:47:06;;;;;;;;;;;;;;;8.20;66.80;103710.28;5070771;28;19919;-83
2022/12/20 00:49:32;;;;;;;;;;;;;;;8.18;66.84;103704.91;5071149;28;20363;-81
2022/12/20 00:51:57;;;;;;;;;;;;;;;8.27;66.56;103689.38;5053334;28;19924;-82
2022/12/20 00:54:23;;;;;;;;;;;;;;;8.25;66.28;103688.28;5053133;28;19916;-82
2022/12/20 00:56:48;;;;;;;;;;;;;;;8.17;67.03;103682.25;5052744;28;20007;-82
2022/12/20 00:59:13;;;;;;;;;;;;;;;8.24;66.72;103665.63;5070850;28;19924;-82
2022/12/20 01:01:39;;;;;;;;;;;;;;;8.15;67.07;103675.94;5070913;28;20385;-81
2022/12/20 01:04:04;;;;;;;;;;;;;;;8.23;66.99;103666.34;5071191;28;20445;-82
2022/12/20 01:06:30;;;;;;;;;;;;;;;8.18;67.11;103650.25;5070593;28;20471;-82
2022/12/20 01:08:56;;;;;;;;;;;;;;;8.21;66.66;103673.06;5070633;28;19939;-82
2022/12/20 01:11:22;;;;;;;;;;;;;;;8.19;66.96;103678.13;5053283;28;20312;-82
2022/12/20 01:13:48;;;;;;;;;;;;;;;8.14;66.98;103701.03;5071212;28;19912;-81
2022/12/20 01:16:19;;;;;;;;;;;;;;;8.10;67.07;103701.44;5052933;28;20009;-83
2022/12/20 01:18:44;;;;;;;;;;;;;;;8.12;66.97;103683.41;5056802;28;19928;-83
2022/12/20 01:21:11;;;;;;;;;;;;;;;8.01;67.25;103670.88;5056954;28;20003;-83
2022/12/20 01:23:36;;;;;;;;;;;;;;;8.09;67.17;103649.25;5064809;28;20021;-82
2022/12/20 01:26:03;;;;;;;;;;;;;;;8.09;67.25;103652.75;5057199;28;19994;-82
2022/12/20 01:28:29;;;;;;;;;;;;;;;8.18;67.13;103647.63;5057132;28;19920;-83
2022/12/20 01:30:54;;;;;;;;;;;;;;;8.12;67.28;103632.25;5039927;28;20003;-83
2022/12/20 01:33:20;;;;;;;;;;;;;;;8.10;66.91;103648.47;5036615;28;20308;-82
2022/12/20 01:35:59;;;;;;;;;;;;;;;7.98;67.05;103636.69;5053641;28;20006;-83
2022/12/20 01:38:24;;;;;;;;;;;;;;;8.09;67.17;103644.03;5053331;28;20054;-82
2022/12/20 01:40:50;;;;;;;;;;;;;;;8.06;67.04;103654.09;5054664;28;20447;-82
2022/12/20 01:43:15;;;;;;;;;;;;;;;8.00;67.17;103640.38;5053476;28;20401;-82
2022/12/20 01:45:40;;;;;;;;;;;;;;;7.97;66.85;103650.47;5053088;28;19923;-82
2022/12/20 01:48:06;;;;;;;;;;;;;;;8.04;67.27;103626.97;5053556;28;19923;-82
2022/12/20 01:50:32;;;;;;;;;;;;;;;8.08;67.07;103613.53;5036732;28;19933;-82
2022/12/20 01:52:58;;;;;;;;;;;;;;;8.04;67.05;103614.88;5053262;28;19917;-84
2022/12/20 01:55:25;;;;;;;;;;;;;;;8.02;67.37;103616.41;5054238;28;19917;-81
2022/12/20 01:57:56;;;;;;;;;;;;;;;8.09;67.02;103608.50;5054417;28;19916;-82
2022/12/20 02:00:21;;;;;;;;;;;;;;;8.09;67.21;103615.41;5053166;28;19917;-81
2022/12/20 02:02:47;;;;;;;;;;;;;;;8.05;67.31;103606.31;5053967;28;19981;-83
2022/12/20 02:05:13;;;;;;;;;;;;;;;8.04;67.72;103600.94;5052842;28;19916;-83
2022/12/20 02:07:39;;;;;;;;;;;;;;;8.02;67.76;103593.00;5035947;28;20020;-82
2022/12/20 02:10:07;;;;;;;;;;;;;;;7.91;67.85;103596.06;5044568;28;20050;-83
2022/12/20 02:12:38;;;;;;;;;;;;;;;7.92;67.80;103598.84;5054491;28;19972;-83
2022/12/20 02:15:04;;;;;;;;;;;;;;;8.06;67.42;103599.44;5043665;28;19917;-82
2022/12/20 02:17:29;;;;;;;;;;;;;;;8.10;67.27;103602.53;5053700;28;19924;-83
2022/12/20 02:20:00;;;;;;;;;;;;;;;8.05;67.53;103608.94;5054156;28;19917;-81
2022/12/20 02:22:45;;;;;;;;;;;;;;;8.03;67.47;103605.22;5052771;28;20317;-81
2022/12/20 02:25:13;;;;;;;;;;;;;;;8.07;67.33;103601.28;5052641;28;19973;-82
2022/12/20 02:27:42;;;;;;;;;;;;;;;8.00;67.27;103599.69;5052356;28;19917;-82
2022/12/20 02:30:09;;;;;;;;;;;;;;;8.03;67.43;103602.63;5053367;28;20070;-82
2022/12/20 02:32:39;;;;;;;;;;;;;;;8.08;67.26;103597.91;5052720;28;19916;-83
2022/12/20 02:35:08;;;;;;;;;;;;;;;8.11;67.13;103600.88;5053722;28;19917;-82
2022/12/20 02:37:34;;;;;;;;;;;;;;;8.16;66.97;103582.38;5051862;28;19974;-81
2022/12/20 02:39:59;;;;;;;;;;;;;;;8.13;67.24;103588.94;5055672;28;19967;-82
2022/12/20 02:42:25;;;;;;;;;;;;;;;8.16;66.94;103587.59;5055648;28;19916;-82
2022/12/20 02:47:39;;;;;;;;;;;;;;;8.12;67.23;103580.19;5058329;28;19923;-84
2022/12/20 02:50:05;;;;;;;;;;;;;;;8.18;66.56;103568.63;5055736;28;19917;-83
2022/12/20 02:52:31;;;;;;;;;;;;;;;8.16;67.22;103581.47;5073508;28;19927;-83
2022/12/20 02:54:56;;;;;;;;;;;;;;;8.15;67.15;103590.03;5073265;28;19916;-81
2022/12/20 02:57:25;;;;;;;;;;;;;;;8.18;67.18;103603.38;5055836;28;20392;-82
2022/12/20 03:00:04;;;;;;;;;;;;;;;8.13;67.20;103581.16;5072916;28;20023;-81
2022/12/20 03:03:21;;;;;;;;;;;;;;;8.16;67.17;103574.56;5055433;28;20401;-84
2022/12/20 03:05:15;;;;;;;;;;;;;;;8.18;67.10;103571.22;5057746;28;19950;-83
2022/12/20 03:07:41;;;;;;;;;;;;;;;8.10;67.36;103586.91;5054850;28;20382;-84
2022/12/20 03:10:07;;;;;;;;;;;;;;;8.13;67.17;103588.94;5073456;28;20367;-84
2022/12/20 03:12:32;;;;;;;;;;;;;;;8.12;67.03;103600.09;5038382;28;20619;-82
2022/12/20 03:14:57;;;;;;;;;;;;;;;8.21;66.77;103595.88;5072613;28;20015;-82
2022/12/20 03:17:23;;;;;;;;;;;;;;;8.11;67.21;103588.78;5055121;28;20389;-82
2022/12/20 03:19:48;;;;;;;;;;;;;;;8.15;67.17;103593.56;5072827;28;19920;-82
2022/12/20 03:22:14;;;;;;;;;;;;;;;8.12;66.88;103577.59;5055166;28;20308;-82
2022/12/20 03:24:39;;;;;;;;;;;;;;;8.12;66.86;103571.47;5072875;28;19928;-81
2022/12/20 03:27:05;;;;;;;;;;;;;;;8.09;67.02;103573.75;5072722;28;19969;-82
2022/12/20 03:29:30;;;;;;;;;;;;;;;8.14;66.75;103582.97;5055258;28;19916;-82
2022/12/20 03:31:56;;;;;;;;;;;;;;;8.10;67.16;103576.50;5034453;28;20287;-82
2022/12/20 03:34:21;;;;;;;;;;;;;;;8.05;67.19;103575.09;5054340;28;20076;-81
2022/12/20 03:36:47;;;;;;;;;;;;;;;8.07;67.14;103586.59;5054482;28;20397;-82
2022/12/20 03:39:12;;;;;;;;;;;;;;;8.10;66.82;103586.00;5062141;28;19928;-82
2022/12/20 03:41:37;;;;;;;;;;;;;;;8.10;66.85;103560.88;5051191;28;19920;-82
2022/12/20 03:44:03;;;;;;;;;;;;;;;8.08;67.16;103574.50;5051900;28;19920;-82
2022/12/20 03:46:28;;;;;;;;;;;;;;;8.07;67.02;103575.25;5051246;28;20371;-81
2022/12/20 03:48:54;;;;;;;;;;;;;;;8.01;67.40;103566.78;5050773;28;19927;-81
2022/12/20 03:51:19;;;;;;;;;;;;;;;8.02;67.46;103573.81;5050824;28;20317;-82
2022/12/20 03:53:44;;;;;;;;;;;;;;;8.05;67.40;103568.97;5052074;28;20287;-82
2022/12/20 03:56:10;;;;;;;;;;;;;;;8.08;66.98;103562.41;5034165;28;19923;-83
2022/12/20 03:58:35;;;;;;;;;;;;;;;8.05;67.25;103556.88;5052071;28;19932;-82
2022/12/20 04:01:01;;;;;;;;;;;;;;;8.10;67.00;103568.69;5050377;28;20377;-82
2022/12/20 04:03:26;;;;;;;;;;;;;;;8.07;67.08;103570.97;5052319;28;20497;-82
2022/12/20 04:05:51;;;;;;;;;;;;;;;8.12;66.92;103572.38;5050853;28;19974;-83
2022/12/20 04:08:17;;;;;;;;;;;;;;;8.06;66.91;103561.31;5050605;28;19939;-83
2022/12/20 04:13:26;;;;;;;;;;;;;;;8.04;66.93;103580.13;5038503;28;19959;-83
2022/12/20 04:15:52;;;;;;;;;;;;;;;7.97;67.16;103570.72;5051191;28;19979;-82
2022/12/20 04:18:18;;;;;;;;;;;;;;;7.98;67.19;103571.63;5051625;28;20400;-83
2022/12/20 04:20:44;;;;;;;;;;;;;;;8.05;66.96;103561.16;5050766;28;19916;-83
2022/12/20 04:23:09;;;;;;;;;;;;;;;8.03;66.89;103552.25;5051936;28;20313;-82
2022/12/20 04:25:35;;;;;;;;;;;;;;;7.91;67.04;103555.34;5051479;28;19990;-82
2022/12/20 04:28:00;;;;;;;;;;;;;;;7.97;67.08;103557.72;5050429;28;20405;-82
2022/12/20 04:30:25;;;;;;;;;;;;;;;8.02;67.01;103556.56;5051262;28;20373;-82
2022/12/20 04:32:53;;;;;;;;;;;;;;;8.01;66.87;103552.09;5050494;28;20296;-81
2022/12/20 04:35:19;;;;;;;;;;;;;;;8.01;66.98;103556.38;5051372;28;19927;-81
2022/12/20 04:37:44;;;;;;;;;;;;;;;7.95;67.25;103565.34;5050357;28;19913;-81
2022/12/20 04:40:10;;;;;;;;;;;;;;;8.00;67.09;103576.28;5051077;28;19927;-82
2022/12/20 04:42:35;;;;;;;;;;;;;;;7.96;67.23;103571.50;5051371;28;20461;-83
2022/12/20 04:45:01;;;;;;;;;;;;;;;7.90;67.43;103568.22;5033042;28;19924;-82
2022/12/20 04:47:26;;;;;;;;;;;;;;;7.93;67.29;103551.22;5051112;28;19923;-82
2022/12/20 04:49:52;;;;;;;;;;;;;;;7.92;67.19;103556.28;5051163;28;19916;-83
2022/12/20 04:55:01;;;;;;;;;;;;;;;7.97;67.18;103562.00;5050819;28;19924;-83
2022/12/20 04:57:27;;;;;;;;;;;;;;;7.95;67.19;103543.59;5050086;28;20424;-82
2022/12/20 04:59:53;;;;;;;;;;;;;;;7.93;67.06;103545.13;5049668;28;19956;-82
2022/12/20 05:02:18;;;;;;;;;;;;;;;7.84;67.30;103539.84;5051032;28;19924;-81
2022/12/20 05:04:44;;;;;;;;;;;;;;;7.72;67.49;103547.19;5049914;28;19925;-84
2022/12/20 05:07:09;;;;;;;;;;;;;;;7.62;67.63;103535.63;5050677;28;19916;-82
2022/12/20 05:09:34;;;;;;;;;;;;;;;7.65;67.57;103531.69;5050714;28;19916;-82
2022/12/20 05:12:00;;;;;;;;;;;;;;;7.78;67.47;103536.56;5050739;28;20450;-82
2022/12/20 05:14:25;;;;;;;;;;;;;;;7.77;67.28;103532.13;5050994;28;20477;-81
2022/12/20 05:16:51;;;;;;;;;;;;;;;7.74;67.37;103542.19;5051118;28;20305;-84
2022/12/20 05:19:16;;;;;;;;;;;;;;;7.75;67.48;103537.16;5050952;28;20404;-84
2022/12/20 05:27:09;;;;;;;;;;;;;;;7.72;67.49;103539.41;5051095;28;19924;-82
2022/12/20 05:29:34;;;;;;;;;;;;;;;7.69;67.75;103532.97;5050854;28;19916;-82
2022/12/20 05:32:00;;;;;;;;;;;;;;;7.73;67.63;103532.53;5049884;28;20382;-83
2022/12/20 05:34:25;;;;;;;;;;;;;;;7.70;67.67;103527.94;5032996;28;20406;-82
2022/12/20 05:36:51;;;;;;;;;;;;;;;7.70;67.52;103538.34;5050801;28;19944;-83
2022/12/20 05:39:16;;;;;;;;;;;;;;;7.67;67.54;103530.19;5049481;28;20318;-82
2022/12/20 05:41:41;;;;;;;;;;;;;;;7.75;67.42;103534.53;5050418;28;20385;-82
2022/12/20 05:44:07;;;;;;;;;;;;;;;7.68;67.45;103537.25;5032214;28;19925;-82
2022/12/20 05:46:32;;;;;;;;;;;;;;;7.64;67.59;103527.25;5049137;28;20074;-83
2022/12/20 05:48:58;;;;;;;;;;;;;;;7.70;67.33;103529.59;5050363;28;19917;-81
2022/12/20 05:51:23;;;;;;;;;;;;;;;7.82;67.10;103530.03;5050999;28;20382;-81
2022/12/20 05:53:49;;;;;;;;;;;;;;;7.84;67.19;103516.41;5049722;28;20439;-81
2022/12/20 05:56:15;;;;;;;;;;;;;;;7.82;67.25;103530.03;5049287;28;19916;-82
2022/12/20 05:58:40;;;;;;;;;;;;;;;7.80;67.00;103515.91;5050245;28;19917;-82
2022/12/20 06:01:06;;;;;;;;;;;;;;;7.85;67.12;103519.94;5050095;28;19921;-82
2022/12/20 06:03:31;;;;;;;;;;;;;;;7.65;67.50;103517.75;5051824;28;19924;-83
2022/12/20 06:05:57;;;;;;;;;;;;;;;7.79;67.14;103519.25;5053327;28;19916;-83
2022/12/20 06:08:23;;;;;;;;;;;;;;;7.73;67.35;103524.72;5054097;28;20406;-83
2022/12/20 06:10:48;;;;;;;;;;;;;;;7.67;67.14;103524.97;5034066;28;19925;-83
2022/12/20 06:13:14;;;;;;;;;;;;;;;7.65;67.58;103523.88;5053040;28;19982;-82
2022/12/20 06:15:39;;;;;;;;;;;;;;;7.71;67.54;103536.66;5053536;28;20347;-82
2022/12/20 06:18:05;;;;;;;;;;;;;;;7.75;67.34;103529.34;5016952;28;20377;-83
2022/12/20 06:20:31;;;;;;;;;;;;;;;7.70;67.33;103535.75;5053009;28;19974;-82
2022/12/20 06:23:03;;;;;;;;;;;;;;;7.66;67.55;103536.16;5047293;28;19924;-83
2022/12/20 06:25:28;;;;;;;;;;;;;;;7.76;67.34;103540.66;5044388;28;19917;-82
2022/12/20 06:27:54;;;;;;;;;;;;;;;7.71;67.46;103528.84;5045606;28;19927;-81
2022/12/20 06:30:19;;;;;;;;;;;;;;;7.63;67.66;103522.78;5053427;28;19924;-81
2022/12/20 06:32:48;;;;;;;;;;;;;;;7.68;67.60;103532.03;5048674;28;20357;-82
2022/12/20 06:35:13;;;;;;;;;;;;;;;7.57;67.70;103531.59;5051818;28;19924;-81
2022/12/20 06:37:39;;;;;;;;;;;;;;;7.56;67.73;103525.47;5049318;28;19921;-81
2022/12/20 06:40:05;;;;;;;;;;;;;;;7.54;67.59;103524.38;5038222;28;19927;-81
2022/12/20 06:42:31;;;;;;;;;;;;;;;7.61;67.43;103521.69;5073330;28;19912;-82
2022/12/20 06:44:56;;;;;;;;;;;;;;;7.55;67.73;103528.81;5072513;28;20405;-82
2022/12/20 06:47:22;;;;;;;;;;;;;;;7.58;67.50;103530.81;5068246;28;20003;-82
2022/12/20 06:49:47;;;;;;;;;;;;;;;7.49;67.71;103530.75;5054889;28;20408;-82
2022/12/20 06:52:12;;;;;;;;;;;;;;;7.52;67.94;103526.81;5059952;28;19913;-81
2022/12/20 06:54:38;;;;;;;;;;;;;;;7.60;67.51;103526.72;5059956;28;19916;-82
2022/12/20 06:57:03;;;;;;;;;;;;;;;7.53;67.17;103527.72;5057778;28;20054;-82
2022/12/20 06:59:29;;;;;;;;;;;;;;;7.42;67.64;103523.94;5052417;28;20462;-82
2022/12/20 07:01:54;;;;;;;;;;;;;;;7.39;68.17;103528.81;5043683;28;20630;-82
2022/12/20 07:04:20;;;;;;;;;;;;;;;7.50;67.95;103530.00;5072243;28;20417;-82
2022/12/20 07:06:45;;;;;;;;;;;;;;;7.46;67.98;103527.81;5071604;28;20010;-82
2022/12/20 07:09:11;;;;;;;;;;;;;;;7.34;68.53;103524.75;5054101;28;20296;-82
2022/12/20 07:11:37;;;;;;;;;;;;;;;7.42;68.33;103528.22;5069705;28;19924;-83
2022/12/20 07:14:02;;;;;;;;;;;;;;;7.42;68.35;103517.81;5072746;28;19913;-82
2022/12/20 07:16:28;;;;;;;;;;;;;;;7.32;68.06;103521.06;5053390;28;19917;-81
2022/12/20 07:18:54;;;;;;;;;;;;;;;7.33;68.10;103534.25;5055254;28;19916;-81
2022/12/20 07:21:19;;;;;;;;;;;;;;;7.38;68.24;103531.22;5072253;28;20360;-81
2022/12/20 07:23:46;;;;;;;;;;;;;;;7.32;68.30;103528.88;5069709;28;20478;-82
2022/12/20 07:26:12;;;;;;;;;;;;;;;7.27;68.17;103535.25;5055036;28;19920;-82
2022/12/20 07:28:38;;;;;;;;;;;;;;;7.28;68.24;103532.81;5072841;28;20011;-82
2022/12/20 07:31:03;;;;;;;;;;;;;;;7.29;68.03;103539.84;5051709;28;19964;-81
2022/12/20 07:33:29;;;;;;;;;;;;;;;7.34;68.12;103530.91;5060885;28;19927;-82
2022/12/20 07:36:01;;;;;;;;;;;;;;;7.37;67.99;103534.59;5053103;28;19917;-81
2022/12/20 07:38:27;;;;;;;;;;;;;;;7.45;67.91;103524.28;5054669;28;20413;-81
2022/12/20 07:40:52;;;;;;;;;;;;;;;7.41;67.71;103527.31;5070143;28;19916;-83
2022/12/20 07:43:17;;;;;;;;;;;;;;;7.36;67.91;103525.84;5054785;28;20033;-82
2022/12/20 07:45:43;;;;;;;;;;;;;;;7.32;68.19;103531.47;5073088;28;20377;-82
2022/12/20 07:48:08;;;;;;;;;;;;;;;7.38;68.06;103533.84;5072805;28;19981;-83
2022/12/20 07:50:34;;;;;;;;;;;;;;;7.45;67.70;103533.75;5055100;28;20362;-83
2022/12/20 07:53:00;;;;;;;;;;;;;;;7.46;68.00;103527.81;5067110;28;19952;-83
2022/12/20 07:55:25;;;;;;;;;;;;;;;7.43;67.99;103530.06;5053907;28;19963;-83
2022/12/20 07:57:55;;;;;;;;;;;;;;;7.43;68.17;103524.84;5070247;28;19921;-83
2022/12/20 08:00:21;;;;;;;;;;;;;;;7.33;68.33;103529.03;5069554;28;19965;-82
2022/12/20 08:02:48;;;;;;;;;;;;;;;7.34;68.49;103527.34;5048549;28;19920;-82
2022/12/20 08:05:14;;;;;;;;;;;;;;;7.31;68.31;103522.75;5053676;28;19948;-83
2022/12/20 08:07:40;;;;;;;;;;;;;;;7.34;68.38;103520.50;5054219;28;19920;-83
2022/12/20 08:10:06;;;;;;;;;;;;;;;7.34;68.42;103528.31;5066480;28;19968;-83
2022/12/20 08:12:32;;;;;;;;;;;;;;;7.29;68.33;103516.47;5044916;28;20404;-83
2022/12/20 08:14:58;;;;;;;;;;;;;;;7.36;68.15;103510.25;5053572;28;19924;-83
2022/12/20 08:17:23;;;;;;;;;;;;;;;7.40;68.27;103511.53;5049885;28;19912;-82
2022/12/20 08:19:52;;;;;;;;;;;;;;;7.40;68.14;103514.13;5072418;28;19916;-82
2022/12/20 08:22:18;;;;;;;;;;;;;;;7.41;68.24;103510.75;5050331;28;19924;-82
2022/12/20 08:24:43;;;;;;;;;;;;;;;7.43;67.81;103502.41;5054620;28;19916;-82
2022/12/20 08:27:09;;;;;;;;;;;;;;;7.46;68.00;103502.72;5051389;28;21067;-82
2022/12/20 08:29:34;;;;;;;;;;;;;;;7.48;67.90;103506.41;5054441;28;19912;-82
2022/12/20 08:32:00;;;;;;;;;;;;;;;7.47;67.90;103506.25;5065322;28;19917;-82
2022/12/20 08:34:25;;;;;;;;;;;;;;;7.41;68.18;103497.75;5072696;28;19920;-82
2022/12/20 08:36:51;;;;;;;;;;;;;;;7.41;67.92;103501.31;5065075;28;19917;-82
2022/12/20 08:39:16;;;;;;;;;;;;;;;7.38;68.14;103500.94;5046283;28;20397;-83
2022/12/20 08:41:41;;;;;;;;;;;;;;;7.43;68.10;103496.25;5051231;28;19913;-82
2022/12/20 08:44:08;;;;;;;;;;;;;;;7.45;68.29;103497.34;5052178;28;19970;-81
2022/12/20 08:46:33;;;;;;;;;;;;;;;7.44;68.28;103493.84;5052019;28;19912;-82
2022/12/20 08:48:59;;;;;;;;;;;;;;;7.47;68.25;103490.63;5050827;28;20294;-82
2022/12/20 08:51:24;;;;;;;;;;;;;;;7.43;68.60;103492.00;5051957;28;19913;-82
2022/12/20 08:53:51;;;;;;;;;;;;;;;7.37;68.38;103485.22;5050722;28;19969;-83
2022/12/20 08:56:16;;;;;;;;;;;;;;;7.40;68.40;103478.66;5049387;28;19970;-82
2022/12/20 08:58:42;;;;;;;;;;;;;;;7.47;68.21;103478.59;5049685;28;19913;-83
2022/12/20 09:01:09;;;;;;;;;;;;;;;7.48;68.09;103482.09;5049856;28;19948;-83
2022/12/20 09:03:35;;;;;;;;;;;;;;;7.46;68.34;103483.59;5050859;28;20455;-81
2022/12/20 09:06:00;;;;;;;;;;;;;;;7.44;68.41;103477.31;5049801;28;19964;-82
2022/12/20 09:08:26;;;;;;;;;;;;;;;7.46;68.39;103475.81;5047999;28;19917;-82
2022/12/20 09:10:52;;;;;;;;;;;;;;;7.39;68.50;103469.00;5048828;28;19925;-82
2022/12/20 09:13:17;;;;;;;;;;;;;;;7.46;68.46;103470.63;5047515;28;20374;-82
2022/12/20 09:15:44;;;;;;;;;;;;;;;7.46;68.38;103463.72;5047536;28;19919;-84
2022/12/20 09:18:09;;;;;;;;;;;;;;;7.46;68.39;103465.41;5049099;28;19924;-82
2022/12/20 09:20:34;;;;;;;;;;;;;;;7.41;68.64;103457.09;5035920;28;19917;-83
2022/12/20 09:23:00;;;;;;;;;;;;;;;7.43;68.40;103462.44;5043865;28;19983;-83
2022/12/20 09:25:26;;;;;;;;;;;;;;;7.42;68.54;103455.44;5045689;28;19992;-83
2022/12/20 09:27:52;;;;;;;;;;;;;;;7.41;68.56;103443.16;5032728;28;19923;-82
2022/12/20 09:30:17;;;;;;;;;;;;;;;7.39;68.33;103436.88;5048736;28;19947;-82
2022/12/20 09:32:43;;;;;;;;;;;;;;;7.44;68.36;103430.50;5047865;28;20321;-82
2022/12/20 09:35:08;;;;;;;;;;;;;;;7.40;68.67;103439.66;5044208;28;19923;-83
2022/12/20 09:37:34;;;;;;;;;;;;;;;7.41;68.41;103440.56;5050933;28;20352;-83
2022/12/20 09:39:59;;;;;;;;;;;;;;;7.42;68.50;103437.22;5052446;28;19936;-83
2022/12/20 09:42:25;;;;;;;;;;;;;;;7.41;68.57;103425.91;5051751;28;19917;-83
2022/12/20 09:44:50;;;;;;;;;;;;;;;7.46;68.43;103424.72;5051495;28;19928;-83
2022/12/20 09:47:20;;;;;;;;;;;;;;;7.40;68.93;103420.53;5052212;28;20404;-83
2022/12/20 09:49:46;;;;;;;;;;;;;;;7.44;68.67;103414.91;5051823;28;20127;-83
2022/12/20 09:52:16;;;;;;;;;;;;;;;7.40;68.78;103408.44;5050634;28;19912;-83
2022/12/20 09:54:45;;;;;;;;;;;;;;;7.32;68.79;103404.09;5051107;28;19917;-83
2022/12/20 09:57:29;;;;;;;;;;;;;;;7.41;68.35;103406.75;5051191;28;19920;-83
2022/12/20 09:59:55;;;;;;;;;;;;;;;7.41;68.47;103406.75;5052558;28;19916;-83
2022/12/20 10:02:21;;;;;;;;;;;;;;;7.42;68.63;103406.03;5052598;28;20397;-83
2022/12/20 10:04:47;;;;;;;;;;;;;;;7.44;68.56;103396.72;5050804;28;19917;-83
2022/12/20 10:07:31;;;;;;;;;;;;;;;7.40;68.49;103395.44;5052156;28;19919;-82
2022/12/20 10:10:01;;;;;;;;;;;;;;;7.39;68.70;103390.06;5051930;28;19920;-82
2022/12/20 10:12:26;;;;;;;;;;;;;;;7.41;68.77;103389.50;5050415;28;20519;-82
2022/12/20 10:14:59;;;;;;;;;;;;;;;7.39;68.88;103392.69;5051930;28;20023;-82
2022/12/20 10:17:40;;;;;;;;;;;;;;;7.38;68.75;103377.84;5050748;28;19920;-82
2022/12/20 10:20:14;;;;;;;;;;;;;;;7.43;68.70;103368.84;5039859;28;20398;-83
2022/12/20 10:22:49;;;;;;;;;;;;;;;7.38;68.40;103364.84;5050250;28;20008;-83
2022/12/20 10:25:16;;;;;;;;;;;;;;;7.40;68.64;103355.53;5050647;28;19917;-83
2022/12/20 10:27:42;;;;;;;;;;;;;;;7.46;68.46;103357.13;5050255;28;19916;-83
2022/12/20 10:30:18;;;;;;;;;;;;;;;7.40;68.24;103355.53;5050739;28;19917;-83
2022/12/20 10:32:44;;;;;;;;;;;;;;;7.36;68.75;103346.47;5051016;28;19924;-83
2022/12/20 10:35:10;;;;;;;;;;;;;;;7.38;68.48;103355.38;5051143;28;20344;-83
2022/12/20 10:37:35;;;;;;;;;;;;;;;7.33;68.65;103338.34;5051169;28;19919;-83
2022/12/20 10:40:01;;;;;;;;;;;;;;;7.32;68.71;103340.06;4975367;28;2150378;-83
2022/12/20 10:42:34;;;;;;;;;;;;;;;7.39;68.60;103341.63;5052309;28;20461;-83
2022/12/20 10:45:00;;;;;;;;;;;;;;;7.41;68.49;103336.56;5051338;28;19936;-83
2022/12/20 10:47:32;;;;;;;;;;;;;;;7.41;68.73;103337.50;5052775;28;19917;-83
2022/12/20 10:50:14;;;;;;;;;;;;;;;7.34;68.52;103328.13;5052866;28;19999;-83
2022/12/20 10:52:40;;;;;;;;;;;;;;;7.40;68.82;103326.94;5051903;28;19952;-83
2022/12/20 10:55:24;;;;;;;;;;;;;;;7.40;68.92;103324.34;5051401;28;19975;-83
2022/12/20 10:57:50;;;;;;;;;;;;;;;7.39;68.69;103319.88;5050993;28;19924;-83
2022/12/20 11:00:26;;;;;;;;;;;;;;;7.43;68.55;103314.25;5052384;28;19913;-83
2022/12/20 11:03:04;;;;;;;;;;;;;;;7.45;68.61;103313.69;5030983;28;20031;-83
2022/12/20 11:05:30;;;;;;;;;;;;;;;7.46;68.77;103307.72;5051032;28;19928;-82
2022/12/20 11:07:59;;;;;;;;;;;;;;;7.42;68.65;103308.16;5051910;28;19921;-83
2022/12/20 11:10:26;;;;;;;;;;;;;;;7.39;68.66;103299.09;5051435;28;19916;-83
2022/12/20 11:12:55;;;;;;;;;;;;;;;7.43;68.76;103290.84;5052089;28;19913;-83
2022/12/20 11:15:25;;;;;;;;;;;;;;;7.45;68.67;103289.34;5050770;28;19956;-82
2022/12/20 11:17:52;;;;;;;;;;;;;;;7.44;68.69;103288.44;5051248;28;20008;-83
2022/12/20 11:20:22;;;;;;;;;;;;;;;7.43;68.65;103280.47;5050642;28;20455;-83
2022/12/20 11:22:55;;;;;;;;;;;;;;;7.43;68.71;103281.41;5051457;28;19912;-83
2022/12/20 11:25:28;;;;;;;;;;;;;;;7.44;68.88;103275.44;5051714;28;19920;-82
2022/12/20 11:28:03;;;;;;;;;;;;;;;7.41;68.83;103271.56;5050230;28;20394;-82
2022/12/20 11:30:33;;;;;;;;;;;;;;;7.38;68.99;103260.88;5051896;28;20416;-83
2022/12/20 11:33:14;;;;;;;;;;;;;;;7.41;68.87;103253.38;5050693;28;20016;-83
2022/12/20 11:35:46;;;;;;;;;;;;;;;7.41;68.72;103258.56;5050550;28;19921;-83
2022/12/20 11:38:13;;;;;;;;;;;;;;;7.42;68.75;103258.75;5050362;28;20004;-82
2022/12/20 11:40:48;;;;;;;;;;;;;;;7.46;68.55;103252.22;5049573;28;20398;-82
2022/12/20 11:43:32;;;;;;;;;;;;;;;7.46;68.74;103244.41;5049212;28;20373;-83
2022/12/20 11:45:57;;;;;;;;;;;;;;;7.42;68.97;103245.75;5039301;28;19913;-82
2022/12/20 11:48:25;;;;;;;;;;;;;;;7.45;68.65;103242.53;5051273;28;19913;-82
2022/12/20 11:50:51;;;;;;;;;;;;;;;7.47;68.78;103239.38;5052475;28;19920;-82
2022/12/20 11:53:22;;;;;;;;;;;;;;;7.47;68.66;103228.03;5052201;28;20344;-83
2022/12/20 11:55:48;;;;;;;;;;;;;;;7.44;68.78;103228.63;5052144;28;19967;-80
2022/12/20 11:58:28;;;;;;;;;;;;;;;7.44;68.66;103232.94;5052044;28;19942;-83
2022/12/20 12:01:12;;;;;;;;;;;;;;;7.42;68.91;103229.25;5050557;28;19935;-83
2022/12/20 12:03:38;;;;;;;;;;;;;;;7.43;68.92;103225.88;5052012;28;19917;-84
2022/12/20 12:06:06;;;;;;;;;;;;;;;7.39;69.10;103218.50;5051827;28;19917;-82
2022/12/20 12:08:38;;;;;;;;;;;;;;;7.41;69.05;103214.38;5051051;28;19913;-83
2022/12/20 12:11:05;;;;;;;;;;;;;;;7.33;69.26;103216.19;5051129;28;19920;-82
2022/12/20 12:13:31;;;;;;;;;;;;;;;7.39;69.11;103206.44;5051173;28;19962;-83
2022/12/20 12:16:17;;;;;;;;;;;;;;;7.33;69.18;103205.78;5051190;28;19916;-83
2022/12/20 12:18:42;;;;;;;;;;;;;;;7.40;69.03;103210.88;5051745;28;20309;-83
2022/12/20 12:21:14;;;;;;;;;;;;;;;7.39;69.08;103211.66;5030870;28;19920;-83
2022/12/20 12:23:42;;;;;;;;;;;;;;;7.41;68.94;103206.56;5043577;28;19916;-83
2022/12/20 12:26:14;;;;;;;;;;;;;;;7.41;69.18;103202.31;5052152;28;20366;-83
2022/12/20 12:28:39;;;;;;;;;;;;;;;7.45;68.74;103203.53;5052354;28;20559;-84
2022/12/20 12:31:16;;;;;;;;;;;;;;;7.45;68.99;103206.16;5052247;28;19912;-84
2022/12/20 12:34:01;;;;;;;;;;;;;;;7.44;69.01;103201.72;5050987;28;19947;-84
2022/12/20 12:36:27;;;;;;;;;;;;;;;7.46;69.03;103202.81;5011190;28;19913;-82
2022/12/20 12:39:04;;;;;;;;;;;;;;;7.48;69.12;103201.28;5048130;28;19958;-82
2022/12/20 12:41:33;;;;;;;;;;;;;;;7.46;69.07;103202.81;5052664;28;19913;-83
2022/12/20 12:44:05;;;;;;;;;;;;;;;7.44;69.09;103194.84;5050584;28;19983;-83
2022/12/20 12:46:31;;;;;;;;;;;;;;;7.45;69.17;103200.94;5051959;28;20309;-83
2022/12/20 12:48:57;;;;;;;;;;;;;;;7.49;68.92;103196.25;5050632;28;19912;-83
2022/12/20 12:51:27;;;;;;;;;;;;;;;7.48;68.96;103203.88;5051873;28;19913;-83
2022/12/20 12:53:54;;;;;;;;;;;;;;;7.42;69.12;103208.44;5050272;28;19913;-83
2022/12/20 12:56:26;;;;;;;;;;;;;;;7.43;69.22;103205.06;5038001;28;20016;-83
2022/12/20 12:59:14;;;;;;;;;;;;;;;7.41;69.58;103201.38;5031773;28;19913;-82
2022/12/20 13:02:12;;;;;;;;;;;;;;;7.39;69.27;103198.66;5032175;28;19971;-83